1.71 0.79
as at 1 April 2015


Welshpool Mid Wales Airport lies in the beautiful Severn valley and is on the edge of some of the most stunning open flying country anywhere in the UK.

runway04dusk

Developed from the 1990s onwards, the airport is now a home for numerous business and light aircraft. It is also the base for the Mid Wales Air Ambulance. Here you can get lessons and gain a licence flying helicopters, fixed wing aircraft and microlights. You could also just come along and watch the comings and goings of a busy general aviation hub.

Royal Danish Air Force

We recently had a visit from the Royal Danish Air Force. Thankfully this time it wasn't a viking invasion and this friendly bunch replaced their longboats for a pair of SAAB T-17s.

Velkommen!
IMG 7975

2178-8006-T-404

More in this category: « May visitors
Partly Cloudy

17°C

Welshpool

Partly Cloudy

Wind: 14.48 km/h

SHAWBURY
METAR: EGOS 311050Z 17008KT 9999 FEW040 17/07 Q1018 BLU NOSIG =
TAF: TAF EGOS 311037Z 3112/3117 21008KT 9999 SCT040 =
SR / SS: 04:30 / 20:07 UTC
Here is the collection of friv yepi. . Gun games play online free gun games. . http://www.hunts-international.com